Time;durP1;ratioP1;P1;durP2;ratioP2;P2;SDS_P1;SDS_P2;PMS_P1;PMS_P2;Temp;Humidity;BMP_temperature;BMP_pressure;BME280_temperature;BME280_humidity;BME280_pressure;Samples;Min_cycle;Max_cycle;Signal;HPM_P1;HPM_P2
2022/07/28 00:01:34;;;;;;;5.90;2.23;;;20.00;57.10;;;;;;5019002;28;20189;-52
2022/07/28 00:03:59;;;;;;;5.47;2.43;;;20.00;57.10;;;;;;5029323;28;20249;-49
2022/07/28 00:06:25;;;;;;;2.60;1.90;;;19.90;56.40;;;;;;5035028;28;20194;-51
2022/07/28 00:08:51;;;;;;;3.00;2.53;;;19.90;57.10;;;;;;5024781;28;20541;-50
2022/07/28 00:11:17;;;;;;;3.30;2.43;;;19.90;57.00;;;;;;5015621;28;20184;-50
2022/07/28 00:13:42;;;;;;;3.07;2.27;;;19.90;57.00;;;;;;5016577;28;20472;-49
2022/07/28 00:16:08;;;;;;;2.60;2.20;;;19.80;57.10;;;;;;5033336;28;20787;-50
2022/07/28 00:18:34;;;;;;;3.60;2.17;;;19.90;57.30;;;;;;5016776;28;20561;-52
2022/07/28 00:21:00;;;;;;;2.60;2.40;;;20.00;57.60;;;;;;5017432;28;20624;-51
2022/07/28 00:23:26;;;;;;;5.20;2.40;;;19.90;57.10;;;;;;5017759;28;20182;-50
2022/07/28 00:25:51;;;;;;;5.80;2.40;;;19.90;57.10;;;;;;5032598;28;20452;-51
2022/07/28 00:28:17;;;;;;;2.60;1.90;;;19.90;57.50;;;;;;5036253;28;20192;-50
2022/07/28 00:30:42;;;;;;;4.93;2.00;;;19.90;57.50;;;;;;5021025;28;20267;-50
2022/07/28 00:33:08;;;;;;;3.50;2.00;;;19.90;57.30;;;;;;5016825;28;20439;-53
2022/07/28 00:35:34;;;;;;;2.50;2.30;;;19.90;57.40;;;;;;5026291;28;20288;-52
2022/07/28 00:37:59;;;;;;;4.20;1.90;;;19.90;57.20;;;;;;5021682;28;20199;-51
2022/07/28 00:41:09;;;;;;;4.23;3.10;;;19.90;57.50;;;;;;5020791;28;20290;-50
2022/07/28 00:43:11;;;;;;;3.47;2.20;;;19.90;57.40;;;;;;5021365;28;20193;-51
2022/07/28 00:45:37;;;;;;;6.27;2.23;;;19.90;57.60;;;;;;5020933;28;20831;-51
2022/07/28 00:48:03;;;;;;;2.43;2.00;;;19.80;57.60;;;;;;5021073;28;20187;-50
2022/07/28 00:50:29;;;;;;;2.03;1.83;;;19.80;57.60;;;;;;5021248;28;20216;-51
2022/07/28 00:52:54;;;;;;;5.77;2.10;;;19.80;57.40;;;;;;5019980;28;20595;-49
2022/07/28 00:55:21;;;;;;;2.33;2.13;;;19.80;57.70;;;;;;5021548;28;20500;-53
2022/07/28 00:57:47;;;;;;;3.50;2.10;;;19.80;57.70;;;;;;5020615;28;20251;-51
2022/07/28 01:00:13;;;;;;;4.40;2.20;;;19.80;57.30;;;;;;5020799;28;20437;-49
2022/07/28 01:02:39;;;;;;;2.90;2.27;;;19.70;57.50;;;;;;5021118;28;20197;-50
2022/07/28 01:05:05;;;;;;;5.50;2.70;;;19.60;57.40;;;;;;5003620;28;20760;-50
2022/07/28 01:07:42;;;;;;;3.10;2.70;;;19.50;57.50;;;;;;5020091;28;20274;-54
2022/07/28 01:10:30;;;;;;;3.50;2.13;;;19.50;58.10;;;;;;5020599;28;20476;-50
2022/07/28 01:13:24;;;;;;;4.20;2.40;;;19.50;58.10;;;;;;5018862;28;20702;-49
2022/07/28 01:15:56;;;;;;;3.03;1.73;;;19.40;58.00;;;;;;5018800;28;20434;-49
2022/07/28 01:18:24;;;;;;;2.87;2.10;;;19.30;58.20;;;;;;5027560;28;20429;-50
2022/07/28 01:20:53;;;;;;;2.70;2.07;;;19.30;58.30;;;;;;5019934;28;20916;-50
2022/07/28 01:23:31;;;;;;;7.30;2.23;;;19.30;58.50;;;;;;5019280;28;20426;-49
2022/07/28 01:26:15;;;;;;;3.40;2.40;;;19.20;58.20;;;;;;5019602;28;20426;-50
2022/07/28 01:28:56;;;;;;;2.53;2.33;;;19.20;58.50;;;;;;5031229;28;20456;-53
2022/07/28 01:31:24;;;;;;;5.37;2.47;;;19.20;58.70;;;;;;5018664;28;20471;-53
2022/07/28 01:33:59;;;;;;;3.03;2.30;;;19.20;58.80;;;;;;5019671;28;20608;-52
2022/07/28 01:36:28;;;;;;;4.10;2.70;;;19.20;58.80;;;;;;5018752;28;20832;-50
2022/07/28 01:38:54;;;;;;;3.67;2.43;;;19.20;59.00;;;;;;5019027;28;20780;-49
2022/07/28 01:41:22;;;;;;;2.97;2.30;;;19.20;58.90;;;;;;5019147;28;20419;-49
2022/07/28 01:43:56;;;;;;;3.57;2.60;;;19.10;58.80;;;;;;5019786;28;20470;-49
2022/07/28 01:46:22;;;;;;;2.90;2.07;;;19.10;59.10;;;;;;5001781;28;20595;-49
2022/07/28 01:48:49;;;;;;;3.27;2.50;;;19.20;59.20;;;;;;5019115;28;20532;-48
2022/07/28 01:51:15;;;;;;;2.97;2.40;;;19.20;59.10;;;;;;5019110;28;20421;-48
2022/07/28 01:53:42;;;;;;;2.70;2.50;;;19.20;59.20;;;;;;5019337;28;20434;-49
2022/07/28 01:56:09;;;;;;;3.43;2.40;;;19.20;59.10;;;;;;5018378;28;20428;-50
2022/07/28 01:58:36;;;;;;;3.03;2.00;;;19.20;59.20;;;;;;5002491;28;20851;-49
2022/07/28 02:01:03;;;;;;;2.40;2.20;;;19.20;59.30;;;;;;5018898;28;20411;-49
2022/07/28 02:03:29;;;;;;;2.47;2.23;;;19.20;59.30;;;;;;5018025;28;20417;-49
2022/07/28 02:05:55;;;;;;;3.27;2.47;;;19.20;59.30;;;;;;5017651;28;20903;-49
2022/07/28 02:08:22;;;;;;;4.57;2.80;;;19.20;59.50;;;;;;5018087;28;20486;-52
2022/07/28 02:13:34;;;;;;;3.43;2.70;;;19.20;59.30;;;;;;5018338;28;20474;-50
2022/07/28 02:16:02;;;;;;;5.50;2.40;;;19.10;59.20;;;;;;5001823;28;20436;-49
2022/07/28 02:18:29;;;;;;;2.80;2.50;;;19.10;59.40;;;;;;5018242;28;20479;-51
2022/07/28 02:20:54;;;;;;;2.60;2.07;;;19.10;59.60;;;;;;5019408;28;20900;-48
2022/07/28 02:23:21;;;;;;;2.80;2.57;;;19.10;59.60;;;;;;5017960;28;20422;-48
2022/07/28 02:25:47;;;;;;;3.83;2.63;;;19.10;59.50;;;;;;5002104;28;20415;-51
2022/07/28 02:28:14;;;;;;;4.23;2.50;;;19.10;59.50;;;;;;5019275;28;20459;-51
2022/07/28 02:30:44;;;;;;;3.97;2.60;;;19.10;59.70;;;;;;5019415;28;20526;-51
2022/07/28 02:33:17;;;;;;;3.07;2.30;;;19.10;59.60;;;;;;5019486;28;20513;-49
2022/07/28 02:35:47;;;;;;;2.80;2.60;;;19.10;59.80;;;;;;5019113;28;20425;-51
2022/07/28 02:38:24;;;;;;;3.13;2.47;;;19.00;59.80;;;;;;5019257;28;20416;-51
2022/07/28 02:40:53;;;;;;;2.60;2.23;;;19.10;59.80;;;;;;5018976;28;20410;-53
2022/07/28 02:43:27;;;;;;;4.60;2.77;;;19.00;59.80;;;;;;5018159;28;20831;-50
2022/07/28 02:45:56;;;;;;;3.60;2.63;;;19.00;59.80;;;;;;5018668;28;20516;-51
2022/07/28 02:48:24;;;;;;;5.57;2.60;;;19.00;59.60;;;;;;5017562;28;20415;-49
2022/07/28 02:50:51;;;;;;;4.53;2.70;;;19.00;60.20;;;;;;5016864;28;20488;-50
2022/07/28 02:53:17;;;;;;;3.07;2.53;;;18.90;60.40;;;;;;5017311;28;20435;-49
2022/07/28 02:55:46;;;;;;;4.80;3.13;;;18.90;60.20;;;;;;5017881;28;20431;-51
2022/07/28 02:58:14;;;;;;;2.90;2.67;;;18.90;60.20;;;;;;5017316;28;20410;-51
2022/07/28 03:00:40;;;;;;;3.10;2.80;;;18.80;60.00;;;;;;5016755;28;20440;-52
2022/07/28 03:03:07;;;;;;;3.53;2.80;;;18.80;60.30;;;;;;5018443;28;20447;-53
2022/07/28 03:05:33;;;;;;;3.70;2.40;;;18.70;60.40;;;;;;5016924;28;20825;-50
2022/07/28 03:07:59;;;;;;;2.43;2.23;;;18.70;61.30;;;;;;5016494;28;20417;-50
2022/07/28 03:10:26;;;;;;;3.40;2.77;;;18.70;61.10;;;;;;5016503;28;20707;-49
2022/07/28 03:12:55;;;;;;;3.53;2.80;;;18.60;61.10;;;;;;5017245;28;20180;-50
2022/07/28 03:15:22;;;;;;;2.90;2.50;;;18.60;61.20;;;;;;5016030;28;20427;-50
2022/07/28 03:17:47;;;;;;;5.20;2.43;;;18.50;61.10;;;;;;5015603;28;20715;-50
2022/07/28 03:20:13;;;;;;;5.33;2.67;;;18.40;61.30;;;;;;5016212;28;20437;-49
2022/07/28 03:22:39;;;;;;;3.63;2.47;;;18.30;61.70;;;;;;5016314;28;20188;-50
2022/07/28 03:25:12;;;;;;;3.10;2.50;;;18.30;62.10;;;;;;5015448;28;20567;-51
2022/07/28 03:27:41;;;;;;;4.30;2.17;;;18.30;62.40;;;;;;5015017;28;20417;-51
2022/07/28 03:30:12;;;;;;;3.00;2.63;;;18.40;63.00;;;;;;5015813;28;20967;-51
2022/07/28 03:32:42;;;;;;;2.63;2.00;;;18.40;62.60;;;;;;5014390;28;20700;-49
2022/07/28 03:35:09;;;;;;;5.77;3.03;;;18.50;62.60;;;;;;5013017;28;20457;-50
2022/07/28 03:37:41;;;;;;;3.53;2.47;;;18.50;62.40;;;;;;5013290;28;20412;-51
2022/07/28 03:40:09;;;;;;;3.20;2.27;;;18.50;62.40;;;;;;5012337;28;20435;-50
2022/07/28 03:42:36;;;;;;;2.50;2.30;;;18.40;61.90;;;;;;5012361;28;20832;-49
2022/07/28 03:45:02;;;;;;;2.63;2.43;;;18.30;61.90;;;;;;5012043;28;21051;-50
2022/07/28 03:47:27;;;;;;;5.67;2.97;;;18.20;62.70;;;;;;5026431;28;20434;-49
2022/07/28 03:49:53;;;;;;;3.83;2.23;;;18.10;63.10;;;;;;5030891;28;20470;-49
2022/07/28 03:52:19;;;;;;;3.67;2.40;;;18.00;64.00;;;;;;5016690;28;20176;-54
2022/07/28 03:54:44;;;;;;;4.37;2.67;;;17.90;64.30;;;;;;5014236;28;20174;-49
2022/07/28 03:57:11;;;;;;;3.37;2.77;;;17.90;64.70;;;;;;5014596;28;20200;-48
2022/07/28 03:59:36;;;;;;;2.70;2.50;;;18.00;65.30;;;;;;5013164;28;20198;-49
2022/07/28 04:02:03;;;;;;;4.60;2.37;;;18.00;65.20;;;;;;5024494;28;20506;-53
2022/07/28 04:04:28;;;;;;;3.77;2.67;;;18.00;64.60;;;;;;5015397;28;20210;-50
2022/07/28 04:06:54;;;;;;;4.03;3.00;;;18.10;65.00;;;;;;5012718;28;20421;-50
2022/07/28 04:09:20;;;;;;;3.30;2.50;;;18.10;65.00;;;;;;5012469;28;20221;-49
2022/07/28 04:11:45;;;;;;;3.57;2.77;;;18.20;65.10;;;;;;5012290;28;20203;-50
2022/07/28 04:14:11;;;;;;;6.30;2.13;;;18.20;65.10;;;;;;5012199;28;20170;-51
2022/07/28 04:16:36;;;;;;;3.90;2.83;;;18.30;65.00;;;;;;5012276;28;20203;-50
2022/07/28 04:19:02;;;;;;;2.60;2.40;;;18.30;64.70;;;;;;5013589;28;20640;-48
2022/07/28 04:21:28;;;;;;;4.07;2.73;;;18.40;64.50;;;;;;5014143;28;20564;-50
2022/07/28 04:23:53;;;;;;;2.60;2.37;;;18.40;64.30;;;;;;5013878;28;20579;-49
2022/07/28 04:26:19;;;;;;;2.80;2.47;;;18.40;64.10;;;;;;5013178;28;20192;-49
2022/07/28 04:28:45;;;;;;;5.20;2.50;;;18.50;63.50;;;;;;5013589;28;20183;-49
2022/07/28 04:31:10;;;;;;;4.00;2.60;;;18.40;63.60;;;;;;5012503;28;20226;-52
2022/07/28 04:33:36;;;;;;;2.67;2.40;;;18.40;63.80;;;;;;5010676;28;20239;-55
2022/07/28 04:36:03;;;;;;;3.10;2.80;;;18.40;63.80;;;;;;5011720;28;20557;-53
2022/07/28 04:38:28;;;;;;;3.77;2.73;;;18.40;64.00;;;;;;5011729;28;20182;-53
2022/07/28 04:40:54;;;;;;;3.93;2.40;;;18.50;63.90;;;;;;5013117;28;20433;-54
2022/07/28 04:43:20;;;;;;;3.77;2.63;;;18.60;63.60;;;;;;5013183;28;20252;-56
2022/07/28 04:45:47;;;;;;;3.47;2.20;;;18.70;63.70;;;;;;5014492;28;20179;-52
2022/07/28 04:48:13;;;;;;;4.33;2.80;;;18.70;63.70;;;;;;5015350;28;20409;-55
2022/07/28 04:50:43;;;;;;;2.37;2.00;;;18.80;63.40;;;;;;5015139;28;20469;-50
2022/07/28 04:53:10;;;;;;;3.83;2.67;;;18.80;63.90;;;;;;5017386;28;20406;-54
2022/07/28 04:55:37;;;;;;;3.00;2.53;;;18.90;62.30;;;;;;5017316;28;20501;-51
2022/07/28 04:58:04;;;;;;;3.17;2.77;;;18.90;62.60;;;;;;5016766;28;20419;-55
2022/07/28 05:00:29;;;;;;;2.67;2.27;;;19.00;63.00;;;;;;5015597;28;20495;-52
2022/07/28 05:02:57;;;;;;;2.57;2.20;;;19.00;62.60;;;;;;5014487;28;20833;-52
2022/07/28 05:05:23;;;;;;;3.20;2.70;;;19.10;62.30;;;;;;5016201;28;20173;-51
2022/07/28 05:07:48;;;;;;;6.27;2.20;;;19.10;61.70;;;;;;5014845;28;20419;-54
2022/07/28 05:10:14;;;;;;;4.13;2.57;;;19.10;63.10;;;;;;5015145;28;20536;-55
2022/07/28 05:12:40;;;;;;;3.37;2.80;;;19.10;62.90;;;;;;5014355;28;20177;-54
2022/07/28 05:15:07;;;;;;;2.63;2.43;;;19.20;62.60;;;;;;5018255;28;20182;-52
2022/07/28 05:17:33;;;;;;;2.70;2.20;;;19.30;62.30;;;;;;5019240;28;20440;-55
2022/07/28 05:19:58;;;;;;;3.17;2.43;;;19.40;62.20;;;;;;5018423;28;20753;-56
2022/07/28 05:22:25;;;;;;;3.33;2.60;;;19.60;62.10;;;;;;5019103;28;20504;-55
2022/07/28 05:24:51;;;;;;;5.33;3.50;;;19.60;61.90;;;;;;5018691;28;20517;-55
2022/07/28 05:27:16;;;;;;;6.30;2.93;;;19.70;62.00;;;;;;5017166;28;20482;-52
2022/07/28 05:29:42;;;;;;;5.10;2.87;;;19.80;62.10;;;;;;5017169;28;20240;-55
2022/07/28 05:32:08;;;;;;;6.50;3.00;;;19.80;61.90;;;;;;5017921;28;20529;-54
2022/07/28 05:34:34;;;;;;;4.87;2.90;;;19.80;62.10;;;;;;5018002;28;20169;-55
2022/07/28 05:37:01;;;;;;;3.97;2.90;;;19.80;61.90;;;;;;5018718;28;20448;-51
2022/07/28 05:39:27;;;;;;;3.30;2.83;;;19.80;61.90;;;;;;5018234;28;20420;-54
2022/07/28 05:41:53;;;;;;;5.07;3.13;;;19.80;62.20;;;;;;5016796;28;20817;-53
2022/07/28 05:44:19;;;;;;;4.77;2.90;;;19.70;62.60;;;;;;5015896;28;20528;-53
2022/07/28 05:46:44;;;;;;;5.60;2.80;;;19.60;63.30;;;;;;5015634;28;20205;-53
2022/07/28 05:49:12;;;;;;;4.80;2.83;;;19.60;63.60;;;;;;5015897;28;20214;-53
2022/07/28 05:51:37;;;;;;;3.47;3.00;;;19.60;64.00;;;;;;5014729;28;20182;-52
2022/07/28 05:54:03;;;;;;;3.53;3.13;;;19.70;63.80;;;;;;5015150;28;20414;-55
2022/07/28 05:56:28;;;;;;;3.80;3.30;;;19.80;63.80;;;;;;5014864;28;20694;-53
2022/07/28 05:58:54;;;;;;;3.60;3.10;;;19.90;63.60;;;;;;5016353;28;20581;-54
2022/07/28 06:01:20;;;;;;;3.27;2.80;;;20.10;63.20;;;;;;5016569;28;20572;-53
2022/07/28 06:03:48;;;;;;;6.33;3.07;;;20.20;62.60;;;;;;5017007;28;20187;-54
2022/07/28 06:06:13;;;;;;;4.87;3.37;;;20.40;62.50;;;;;;5014146;28;20573;-55
2022/07/28 06:08:39;;;;;;;3.30;3.00;;;20.60;61.80;;;;;;5015172;28;20581;-53
2022/07/28 06:11:08;;;;;;;4.73;2.80;;;20.70;61.30;;;;;;5015185;28;20443;-55
2022/07/28 06:13:37;;;;;;;3.50;2.97;;;20.80;61.10;;;;;;5014263;28;20180;-54
2022/07/28 06:16:07;;;;;;;3.40;3.10;;;21.00;60.90;;;;;;5010992;28;20449;-53
2022/07/28 06:18:32;;;;;;;5.30;3.27;;;21.10;60.80;;;;;;5012020;28;20429;-55
2022/07/28 06:20:58;;;;;;;3.70;3.40;;;21.20;60.90;;;;;;5012251;28;20562;-54
2022/07/28 06:23:24;;;;;;;5.30;4.70;;;21.20;60.60;;;;;;5012727;28;20718;-56
2022/07/28 06:25:50;;;;;;;4.53;4.13;;;21.30;60.90;;;;;;5012343;28;20562;-56
2022/07/28 06:28:17;;;;;;;4.60;3.93;;;21.20;61.40;;;;;;5013017;28;20435;-53
2022/07/28 06:30:52;;;;;;;5.37;4.87;;;21.20;62.00;;;;;;5015282;28;20563;-53
2022/07/28 06:33:35;;;;;;;5.77;5.17;;;21.10;62.90;;;;;;5017308;28;20441;-53
2022/07/28 06:36:00;;;;;;;5.63;5.13;;;21.20;62.70;;;;;;5016285;28;20453;-55
2022/07/28 06:38:26;;;;;;;6.23;5.73;;;21.30;63.20;;;;;;5013673;28;20487;-53
2022/07/28 06:40:52;;;;;;;5.97;4.77;;;21.30;63.50;;;;;;5014974;28;20428;-54
2022/07/28 06:43:17;;;;;;;5.60;5.10;;;21.40;63.20;;;;;;5014146;28;20468;-54
2022/07/28 06:45:44;;;;;;;5.20;4.70;;;21.40;63.10;;;;;;5016379;28;20272;-52
2022/07/28 06:48:12;;;;;;;7.10;5.57;;;21.50;63.40;;;;;;5014406;28;20221;-54
2022/07/28 06:50:38;;;;;;;5.20;4.70;;;21.70;63.10;;;;;;5014781;28;20861;-57
2022/07/28 06:53:03;;;;;;;5.23;4.73;;;21.80;63.00;;;;;;5014319;28;20585;-55
2022/07/28 06:55:29;;;;;;;5.90;5.03;;;21.90;62.80;;;;;;5013706;28;20559;-57
2022/07/28 06:57:57;;;;;;;6.87;5.60;;;22.00;63.20;;;;;;4999384;28;20181;-55
2022/07/28 07:00:22;;;;;;;5.57;5.17;;;22.20;62.40;;;;;;5014709;28;20187;-53
2022/07/28 07:02:48;;;;;;;6.00;5.50;;;22.40;61.80;;;;;;5013481;28;20449;-54
2022/07/28 07:05:14;;;;;;;5.43;4.93;;;22.60;61.80;;;;;;5013696;28;20416;-52
2022/07/28 07:07:40;;;;;;;7.10;6.50;;;22.70;61.40;;;;;;5013204;28;20255;-53
2022/07/28 07:10:06;;;;;;;7.23;6.23;;;22.90;61.40;;;;;;5013741;28;20457;-51
2022/07/28 07:12:33;;;;;;;6.53;6.00;;;22.70;62.50;;;;;;5014028;28;20185;-54
2022/07/28 07:15:00;;;;;;;8.43;7.53;;;22.70;62.40;;;;;;5012881;28;20427;-55
2022/07/28 07:17:25;;;;;;;8.17;7.03;;;22.70;62.90;;;;;;5015906;28;20422;-56
2022/07/28 07:19:51;;;;;;;8.53;7.63;;;22.90;62.50;;;;;;5013849;28;20775;-52
2022/07/28 07:22:17;;;;;;;7.40;6.70;;;23.00;62.20;;;;;;5012654;28;20611;-55
2022/07/28 07:24:42;;;;;;;7.37;6.67;;;23.00;62.60;;;;;;5014724;28;20204;-54
2022/07/28 07:27:08;;;;;;;9.20;7.13;;;23.00;63.30;;;;;;5014645;28;20205;-55
2022/07/28 07:29:34;;;;;;;7.20;6.50;;;23.10;63.60;;;;;;5012547;28;20288;-56
2022/07/28 07:32:01;;;;;;;6.37;5.87;;;23.40;64.70;;;;;;5014026;28;20243;-55
2022/07/28 07:34:27;;;;;;;8.53;7.30;;;23.60;63.00;;;;;;5014716;28;20459;-56
2022/07/28 07:36:53;;;;;;;6.60;6.10;;;23.70;62.10;;;;;;5016257;28;20437;-55
2022/07/28 07:39:19;;;;;;;8.43;7.73;;;23.70;61.60;;;;;;5014855;28;20519;-56
2022/07/28 07:41:44;;;;;;;8.10;7.50;;;23.80;61.60;;;;;;5015805;28;20415;-54
2022/07/28 07:44:10;;;;;;;7.73;6.93;;;23.90;61.20;;;;;;5014522;28;20615;-53
2022/07/28 07:46:37;;;;;;;7.90;6.27;;;24.00;61.60;;;;;;5014675;28;20206;-57
2022/07/28 07:49:02;;;;;;;7.80;6.97;;;24.20;61.80;;;;;;5014136;28;20201;-57
2022/07/28 07:51:28;;;;;;;8.70;7.90;;;24.60;62.30;;;;;;5014374;28;20771;-55
2022/07/28 07:53:54;;;;;;;11.53;6.90;;;24.90;59.40;;;;;;5014960;28;20175;-56
2022/07/28 07:56:19;;;;;;;11.93;7.47;;;25.10;59.20;;;;;;5013595;28;20178;-57
2022/07/28 07:58:45;;;;;;;7.00;6.40;;;25.40;58.70;;;;;;5014022;28;20172;-55
2022/07/28 08:01:11;;;;;;;8.83;8.00;;;25.60;58.60;;;;;;5011079;28;20167;-52
2022/07/28 08:03:37;;;;;;;9.23;8.40;;;25.80;58.30;;;;;;5013377;28;20186;-57
2022/07/28 08:06:03;;;;;;;8.70;7.70;;;25.80;57.60;;;;;;5014195;28;20433;-56
2022/07/28 08:08:29;;;;;;;6.63;6.00;;;25.80;57.70;;;;;;5014532;28;20488;-52
2022/07/28 08:10:54;;;;;;;7.13;6.53;;;25.90;57.70;;;;;;5015181;28;20273;-54
2022/07/28 08:13:21;;;;;;;7.53;6.83;;;26.20;57.70;;;;;;5014905;28;20517;-53
2022/07/28 08:15:47;;;;;;;7.10;6.50;;;26.50;57.90;;;;;;5014205;28;20172;-51
2022/07/28 08:18:13;;;;;;;7.27;6.60;;;26.80;57.50;;;;;;5013875;28;20395;-54
2022/07/28 08:20:39;;;;;;;8.13;7.43;;;27.10;56.60;;;;;;5015199;28;20702;-56
2022/07/28 08:23:05;;;;;;;10.53;9.50;;;27.30;55.40;;;;;;5012815;28;20529;-55
2022/07/28 08:25:34;;;;;;;8.07;7.40;;;27.10;55.30;;;;;;5013432;28;20413;-57
2022/07/28 08:27:59;;;;;;;8.30;7.70;;;26.80;56.10;;;;;;5014534;28;20573;-54
2022/07/28 08:30:25;;;;;;;9.63;8.83;;;26.90;56.30;;;;;;5013867;28;20473;-54
2022/07/28 08:32:51;;;;;;;9.90;8.70;;;26.90;55.50;;;;;;5014404;28;20719;-56
2022/07/28 08:35:17;;;;;;;8.90;8.10;;;27.00;55.50;;;;;;5012098;28;20507;-54
2022/07/28 08:37:42;;;;;;;9.10;8.30;;;26.90;55.70;;;;;;4994770;28;20210;-55
2022/07/28 08:40:15;;;;;;;8.03;7.37;;;26.70;56.20;;;;;;4994994;28;20646;-52
2022/07/28 08:43:04;;;;;;;8.60;7.90;;;26.50;57.10;;;;;;4995103;28;20212;-51
2022/07/28 08:45:30;;;;;;;8.10;7.50;;;26.60;57.40;;;;;;4992881;28;20422;-52
2022/07/28 08:47:56;;;;;;;8.43;7.83;;;27.00;57.40;;;;;;4993990;28;20438;-52
2022/07/28 08:50:23;;;;;;;8.93;7.80;;;27.50;56.40;;;;;;5011846;28;20581;-50
2022/07/28 08:52:50;;;;;;;7.47;6.90;;;27.90;55.40;;;;;;4995300;28;20434;-56
2022/07/28 08:55:22;;;;;;;11.30;10.20;;;28.30;55.40;;;;;;4997029;28;20510;-51
2022/07/28 08:57:48;;;;;;;8.53;7.83;;;28.60;53.70;;;;;;4994755;28;20867;-54
2022/07/28 09:00:14;;;;;;;9.13;8.33;;;28.60;53.90;;;;;;5011580;28;20503;-50
2022/07/28 09:02:45;;;;;;;8.23;7.53;;;28.60;53.70;;;;;;4995405;28;20553;-50
2022/07/28 09:05:11;;;;;;;8.27;7.57;;;28.70;54.30;;;;;;5015059;28;20467;-56
2022/07/28 09:07:40;;;;;;;8.23;7.53;;;28.90;54.70;;;;;;5027115;28;20460;-56
2022/07/28 09:10:08;;;;;;;10.03;7.53;;;29.30;54.30;;;;;;5013260;28;20480;-54
2022/07/28 09:12:38;;;;;;;8.10;7.40;;;29.70;53.90;;;;;;5016617;28;20438;-56
2022/07/28 09:15:06;;;;;;;9.53;8.63;;;29.90;52.70;;;;;;5017768;28;20473;-54
2022/07/28 09:17:33;;;;;;;8.70;7.90;;;30.10;52.50;;;;;;5017991;28;20588;-53
2022/07/28 09:19:59;;;;;;;9.23;8.33;;;30.30;51.80;;;;;;5015788;28;20558;-54
2022/07/28 09:22:25;;;;;;;8.30;7.80;;;30.30;51.00;;;;;;5016201;28;20965;-53
2022/07/28 09:24:52;;;;;;;9.63;8.80;;;30.00;51.30;;;;;;5016087;28;20399;-56
2022/07/28 09:27:17;;;;;;;8.73;8.03;;;29.60;51.50;;;;;;5016883;28;20685;-54
2022/07/28 09:29:58;;;;;;;9.00;8.20;;;29.10;52.50;;;;;;5017390;28;20457;-57
2022/07/28 09:32:26;;;;;;;8.30;7.60;;;29.20;53.30;;;;;;5016030;28;20234;-55
2022/07/28 09:34:51;;;;;;;9.13;8.33;;;29.60;53.00;;;;;;5017349;28;20414;-59
2022/07/28 09:37:26;;;;;;;8.13;7.53;;;29.90;52.20;;;;;;5018167;28;20682;-55
2022/07/28 09:39:56;;;;;;;9.20;8.40;;;30.20;51.30;;;;;;5017508;28;20174;-54
2022/07/28 09:42:22;;;;;;;7.83;7.23;;;30.30;51.40;;;;;;5017110;28;20686;-54
2022/07/28 09:45:06;;;;;;;9.00;8.10;;;30.60;51.10;;;;;;5017371;28;20538;-56
2022/07/28 09:47:32;;;;;;;9.50;7.67;;;31.00;50.40;;;;;;5017606;28;20417;-56
2022/07/28 09:49:59;;;;;;;9.00;7.93;;;31.40;50.40;;;;;;5017495;28;20496;-56
2022/07/28 09:52:51;;;;;;;8.20;7.40;;;31.50;49.40;;;;;;5017208;28;20390;-56
2022/07/28 09:55:16;;;;;;;9.93;8.10;;;31.60;48.80;;;;;;5013642;28;20435;-56
2022/07/28 09:57:42;;;;;;;8.27;7.47;;;31.50;47.70;;;;;;5018104;28;20419;-55
2022/07/28 10:00:14;;;;;;;8.53;7.83;;;31.30;48.20;;;;;;5014830;28;20182;-56
2022/07/28 10:02:48;;;;;;;9.33;8.40;;;31.20;48.70;;;;;;5016688;28;20491;-56
2022/07/28 10:05:15;;;;;;;8.27;7.63;;;31.10;47.90;;;;;;5017064;28;20426;-57
2022/07/28 10:07:49;;;;;;;8.13;7.37;;;30.70;49.10;;;;;;5017322;28;20423;-57
2022/07/28 10:10:20;;;;;;;9.37;8.00;;;30.60;49.80;;;;;;5015568;28;20440;-56
2022/07/28 10:12:48;;;;;;;8.57;7.77;;;30.90;50.00;;;;;;5015278;28;20397;-58
2022/07/28 10:18:04;;;;;;;9.30;8.60;;;32.20;48.80;;;;;;5017202;28;20431;-56
2022/07/28 10:20:32;;;;;;;8.10;7.30;;;32.60;45.50;;;;;;5016131;28;20414;-57
2022/07/28 10:23:02;;;;;;;8.23;7.63;;;31.80;47.00;;;;;;5015853;28;20412;-58
2022/07/28 10:25:30;;;;;;;8.50;7.87;;;31.60;48.40;;;;;;5014404;28;20430;-56
2022/07/28 10:27:58;;;;;;;8.43;7.70;;;31.50;47.50;;;;;;5013642;28;20496;-56
2022/07/28 10:30:24;;;;;;;8.30;7.60;;;31.50;48.10;;;;;;5014714;28;20469;-57
2022/07/28 10:32:51;;;;;;;8.13;7.50;;;32.10;48.50;;;;;;5013479;28;20470;-57
2022/07/28 10:35:18;;;;;;;8.17;7.53;;;33.00;47.60;;;;;;5015464;28;20447;-57
2022/07/28 10:37:59;;;;;;;8.20;7.50;;;33.80;45.60;;;;;;5015714;28;20749;-56
2022/07/28 10:40:28;;;;;;;9.50;8.70;;;33.70;43.90;;;;;;5015099;28;20704;-58
2022/07/28 10:42:56;;;;;;;8.50;7.90;;;33.70;44.70;;;;;;5014037;28;20482;-57
2022/07/28 10:45:22;;;;;;;8.30;7.70;;;33.40;43.60;;;;;;5021581;28;20746;-57
2022/07/28 10:47:48;;;;;;;10.37;7.57;;;33.10;45.40;;;;;;5035536;28;20417;-59
2022/07/28 10:50:17;;;;;;;9.13;7.67;;;33.00;45.60;;;;;;5022232;28;20482;-58
2022/07/28 10:52:43;;;;;;;26.80;12.40;;;33.30;44.50;;;;;;4969433;28;20499;-58
2022/07/28 10:55:29;;;;;;;9.30;8.40;;;33.40;44.00;;;;;;4996594;28;20476;-59
2022/07/28 10:58:02;;;;;;;7.93;7.33;;;33.30;44.70;;;;;;4996039;28;20398;-59
2022/07/28 11:00:28;;;;;;;10.00;7.80;;;32.90;44.20;;;;;;4998726;28;20416;-57
2022/07/28 11:02:59;;;;;;;11.23;8.40;;;32.40;44.20;;;;;;5031453;28;20408;-60
2022/07/28 11:05:35;;;;;;;16.57;8.87;;;31.60;45.90;;;;;;5033870;28;20427;-58
2022/07/28 11:08:21;;;;;;;10.90;8.13;;;31.20;46.70;;;;;;5033289;28;20507;-58
2022/07/28 11:10:49;;;;;;;6.93;6.33;;;31.80;46.80;;;;;;5022457;28;20833;-59
2022/07/28 11:13:32;;;;;;;10.07;7.20;;;32.50;45.90;;;;;;5034840;28;20398;-58
2022/07/28 11:16:19;;;;;;;7.47;6.87;;;33.30;44.80;;;;;;5033960;28;20481;-59
2022/07/28 11:19:05;;;;;;;7.30;6.70;;;33.90;42.90;;;;;;5035357;28;20392;-57
2022/07/28 11:21:31;;;;;;;6.77;6.27;;;34.00;42.40;;;;;;5032706;28;20426;-57
2022/07/28 11:23:57;;;;;;;6.97;6.47;;;33.50;42.80;;;;;;5033364;28;20437;-57
2022/07/28 11:26:23;;;;;;;7.60;6.87;;;32.90;43.60;;;;;;5033092;28;20173;-58
2022/07/28 11:29:04;;;;;;;7.20;6.60;;;32.60;44.40;;;;;;5020601;28;20560;-56
2022/07/28 11:31:45;;;;;;;7.70;6.97;;;32.90;44.60;;;;;;5014505;28;20737;-58
2022/07/28 11:34:15;;;;;;;7.53;6.90;;;33.70;42.80;;;;;;5014744;28;20402;-59
2022/07/28 11:37:01;;;;;;;10.20;6.20;;;33.80;42.90;;;;;;5013368;28;20428;-58
2022/07/28 11:39:28;;;;;;;6.70;6.20;;;33.80;43.20;;;;;;5012563;28;20436;-60
2022/07/28 11:41:53;;;;;;;9.53;6.10;;;34.10;43.60;;;;;;5011899;28;20640;-58
2022/07/28 11:44:27;;;;;;;7.00;6.40;;;34.50;43.10;;;;;;5014257;28;20449;-54
2022/07/28 11:46:54;;;;;;;6.93;6.43;;;35.00;41.50;;;;;;5014406;28;20182;-59
2022/07/28 11:49:22;;;;;;;6.80;6.30;;;35.50;41.90;;;;;;5013872;28;20473;-49
2022/07/28 11:52:09;;;;;;;7.47;6.87;;;35.80;39.50;;;;;;5012183;28;20811;-48
2022/07/28 11:54:36;;;;;;;6.97;6.47;;;34.40;40.40;;;;;;5013020;28;20520;-49
2022/07/28 11:57:03;;;;;;;8.33;6.70;;;33.50;42.30;;;;;;5014143;28;20414;-44
2022/07/28 11:59:52;;;;;;;6.93;6.43;;;33.00;42.60;;;;;;5014423;28;20755;-48
2022/07/28 12:02:20;;;;;;;8.90;6.10;;;32.70;42.80;;;;;;5011355;28;20747;-48
2022/07/28 12:05:04;;;;;;;7.50;6.80;;;32.70;41.80;;;;;;5010396;28;20512;-45
2022/07/28 12:07:38;;;;;;;6.90;5.60;;;33.00;40.70;;;;;;5014548;28;20447;-45
2022/07/28 12:10:22;;;;;;;6.30;5.90;;;33.50;41.40;;;;;;5011827;28;20800;-47
2022/07/28 12:12:53;;;;;;;6.20;5.70;;;34.10;40.30;;;;;;5013116;28;20424;-48
2022/07/28 12:15:19;;;;;;;6.47;5.90;;;34.20;41.10;;;;;;5013590;28;20473;-47
2022/07/28 12:17:46;;;;;;;7.60;7.00;;;34.70;40.50;;;;;;5012580;28;20387;-49
2022/07/28 12:20:13;;;;;;;6.00;5.50;;;35.00;39.70;;;;;;5012791;28;20427;-46
2022/07/28 12:22:39;;;;;;;5.70;5.27;;;35.00;39.60;;;;;;5012907;28;20599;-46
2022/07/28 12:25:05;;;;;;;6.50;6.00;;;35.40;39.80;;;;;;5016631;28;20545;-46
2022/07/28 12:27:31;;;;;;;6.47;6.07;;;35.80;39.30;;;;;;5018893;28;20186;-48
2022/07/28 12:29:58;;;;;;;6.83;6.33;;;35.90;37.70;;;;;;5017413;28;20800;-48
2022/07/28 12:32:30;;;;;;;6.50;6.10;;;34.50;38.10;;;;;;5018857;28;20308;-45
2022/07/28 12:34:56;;;;;;;6.43;5.63;;;34.00;39.30;;;;;;5016634;28;20437;-48
2022/07/28 12:37:27;;;;;;;6.47;5.97;;;34.10;40.30;;;;;;5018446;28;20562;-46
2022/07/28 12:39:53;;;;;;;6.07;5.43;;;34.40;40.00;;;;;;5000025;28;20254;-46
2022/07/28 12:42:19;;;;;;;6.40;5.90;;;34.50;38.90;;;;;;4998637;28;20667;-46
2022/07/28 12:44:46;;;;;;;5.60;5.20;;;34.40;38.60;;;;;;4998878;28;20209;-47
2022/07/28 12:47:23;;;;;;;6.20;5.70;;;34.70;39.60;;;;;;4998924;28;20691;-47
2022/07/28 12:50:07;;;;;;;6.40;5.90;;;35.20;39.30;;;;;;4999133;28;20958;-46
2022/07/28 12:52:32;;;;;;;6.67;6.07;;;35.90;38.20;;;;;;4999250;28;20477;-46
2022/07/28 12:54:58;;;;;;;5.97;5.47;;;36.10;37.40;;;;;;4998543;28;20582;-45
2022/07/28 12:57:46;;;;;;;6.63;6.13;;;36.30;37.60;;;;;;4999420;28;20180;-48